PWSweather.com
Personal Weather Stations
Station Observations
SALFORD
Salford, ManchesterGB

SalfordManchesterGB

Lat: 53.501938, Lon: -2.307608500000015

Elevation: 215

Station Type: Davis Vantage Vue

http://phqfh.co.uk/international.htm

Latest ConditionsUpdated 4:00:14 PM GMT Saturday, Nov 17, 2018
Currently Today's Max Today's Min Today's Average
Temperature 49.6°F9.8°C 52.7°F11.5°C 44.8°F7.1°C 48.8°F9.3°C
Dew Point 43.0°F6.1°C 46.8°F8.2°C 41.8°F5.4°C 43.7°F6.5°C
Winds 6.0 mph ENE9.7 kmh ENE 13.0 mph -20.9 kmh - - 4.4 mph 7.1 kmh
Wind Gusts 8.0 mph12.9 kmh 16.0 mph25.7 kmh - -
Humidity 78% 90% 69% 83%
Pressure 30.34 in1027.4 mb 30.36 in1028.1 mb 30.30 in1026.1 mb -
Hour Temp Dew Point Humidity Winds Wind Gusts Pressure Precip Precip Rate Daily Precip Total
04:00 PM 49.6°F9.8°C 43.0°F6.1°C 78% 6.0 mph ENE9.7 kmh ENE 8.0 mph12.9 kmh 30.34 in1027.4 mb 0.00 in0.0 mm 0.00 in0.0 mm 0.00 in0.0 mm
03:30 PM 50.7°F10.4°C 43.1°F6.2°C 75% 3.0 mph NE4.8 kmh NE 4.0 mph6.4 kmh 30.34 in1027.4 mb 0.00 in0.0 mm 0.00 in0.0 mm 0.00 in0.0 mm
03:00 PM 51.2°F10.7°C 43.2°F6.2°C 74% 2.0 mph NE3.2 kmh NE 7.0 mph11.3 kmh 30.35 in1027.8 mb 0.00 in0.0 mm 0.00 in0.0 mm 0.00 in0.0 mm
02:30 PM 51.8°F11.0°C 43.8°F6.6°C 74% 5.0 mph E8.0 kmh E 10.0 mph16.1 kmh 30.35 in1027.8 mb 0.00 in0.0 mm 0.00 in0.0 mm 0.00 in0.0 mm
02:00 PM 52.0°F11.1°C 44.0°F6.7°C 74% 13.0 mph NE20.9 kmh NE 14.0 mph22.5 kmh 30.34 in1027.4 mb 0.00 in0.0 mm 0.00 in0.0 mm 0.00 in0.0 mm
01:30 PM 52.6°F11.4°C 44.2°F6.8°C 73% 6.0 mph NE9.7 kmh NE 7.0 mph11.3 kmh 30.34 in1027.4 mb 0.00 in0.0 mm 0.00 in0.0 mm 0.00 in0.0 mm
01:00 PM 52.3°F11.3°C 43.2°F6.2°C 71% 10.0 mph ENE16.1 kmh ENE 14.0 mph22.5 kmh 30.34 in1027.4 mb 0.00 in0.0 mm 0.00 in0.0 mm 0.00 in0.0 mm
12:30 PM 52.7°F11.5°C 43.2°F6.2°C 70% 5.0 mph ENE8.0 kmh ENE 9.0 mph14.5 kmh 30.34 in1027.4 mb 0.00 in0.0 mm 0.00 in0.0 mm 0.00 in0.0 mm
12:00 PM 52.6°F11.4°C 42.7°F5.9°C 69% 2.0 mph N3.2 kmh N 4.0 mph6.4 kmh 30.35 in1027.8 mb 0.00 in0.0 mm 0.00 in0.0 mm 0.00 in0.0 mm
11:30 AM 51.6°F10.9°C 42.2°F5.7°C 70% 5.0 mph SE8.0 kmh SE 8.0 mph12.9 kmh 30.35 in1027.8 mb 0.00 in0.0 mm 0.00 in0.0 mm 0.00 in0.0 mm
11:00 AM 50.8°F10.4°C 41.8°F5.4°C 71% 6.0 mph E9.7 kmh E 16.0 mph25.7 kmh 30.35 in1027.8 mb 0.00 in0.0 mm 0.00 in0.0 mm 0.00 in0.0 mm
10:30 AM 50.3°F10.2°C 43.0°F6.1°C 76% 6.0 mph E9.7 kmh E 6.0 mph9.7 kmh 30.36 in1028.1 mb 0.00 in0.0 mm 0.00 in0.0 mm 0.00 in0.0 mm
10:00 AM 49.2°F9.6°C 44.0°F6.7°C 82% Calm Calm 4.0 mph6.4 kmh 30.35 in1027.8 mb 0.00 in0.0 mm 0.00 in0.0 mm 0.00 in0.0 mm
09:30 AM 48.0°F8.9°C 44.0°F6.7°C 86% 2.0 mph ENE3.2 kmh ENE 4.0 mph6.4 kmh 30.35 in1027.8 mb 0.00 in0.0 mm 0.00 in0.0 mm 0.00 in0.0 mm
09:00 AM 46.6°F8.1°C 43.5°F6.4°C 89% 4.0 mph E6.4 kmh E 7.0 mph11.3 kmh 30.35 in1027.8 mb 0.00 in0.0 mm 0.00 in0.0 mm 0.00 in0.0 mm
08:30 AM 45.9°F7.7°C 43.1°F6.2°C 90% 4.0 mph N6.4 kmh N 7.0 mph11.3 kmh 30.35 in1027.8 mb 0.00 in0.0 mm 0.00 in0.0 mm 0.00 in0.0 mm
08:00 AM 45.4°F7.4°C 42.6°F5.9°C 90% 3.0 mph WNW4.8 kmh WNW 6.0 mph9.7 kmh 30.34 in1027.4 mb 0.00 in0.0 mm 0.00 in0.0 mm 0.00 in0.0 mm
07:30 AM 44.8°F7.1°C 42.1°F5.6°C 90% 4.0 mph SE6.4 kmh SE 6.0 mph9.7 kmh 30.33 in1027.1 mb 0.00 in0.0 mm 0.00 in0.0 mm 0.00 in0.0 mm
07:00 AM 44.8°F7.1°C 41.8°F5.4°C 89% 2.0 mph ENE3.2 kmh ENE 3.0 mph4.8 kmh 30.33 in1027.1 mb 0.00 in0.0 mm 0.00 in0.0 mm 0.00 in0.0 mm
06:30 AM 45.4°F7.4°C 42.4°F5.8°C 89% 2.0 mph NE3.2 kmh NE 3.0 mph4.8 kmh 30.33 in1027.1 mb 0.00 in0.0 mm 0.00 in0.0 mm 0.00 in0.0 mm
06:00 AM 46.1°F7.8°C 43.0°F6.1°C 89% 1.0 mph ENE1.6 kmh ENE 3.0 mph4.8 kmh 30.33 in1027.1 mb 0.00 in0.0 mm 0.00 in0.0 mm 0.00 in0.0 mm
05:30 AM 46.1°F7.8°C 42.8°F6.0°C 88% 3.0 mph ENE4.8 kmh ENE 4.0 mph6.4 kmh 30.32 in1026.8 mb 0.00 in0.0 mm 0.00 in0.0 mm 0.00 in0.0 mm
05:00 AM 46.2°F7.9°C 42.9°F6.1°C 88% 3.0 mph NE4.8 kmh NE 5.0 mph8.0 kmh 30.32 in1026.8 mb 0.00 in0.0 mm 0.00 in0.0 mm 0.00 in0.0 mm
04:30 AM 46.6°F8.1°C 43.2°F6.2°C 88% 4.0 mph ENE6.4 kmh ENE 5.0 mph8.0 kmh 30.32 in1026.8 mb 0.00 in0.0 mm 0.00 in0.0 mm 0.00 in0.0 mm
04:00 AM 47.1°F8.4°C 43.7°F6.5°C 88% 6.0 mph E9.7 kmh E 6.0 mph9.7 kmh 30.31 in1026.4 mb 0.00 in0.0 mm 0.00 in0.0 mm 0.00 in0.0 mm
03:30 AM 47.6°F8.7°C 43.9°F6.6°C 87% 4.0 mph NE6.4 kmh NE 8.0 mph12.9 kmh 30.31 in1026.4 mb 0.00 in0.0 mm 0.00 in0.0 mm 0.00 in0.0 mm
03:00 AM 48.3°F9.1°C 44.9°F7.2°C 88% 5.0 mph ENE8.0 kmh ENE 7.0 mph11.3 kmh 30.32 in1026.8 mb 0.00 in0.0 mm 0.00 in0.0 mm 0.00 in0.0 mm
02:30 AM 48.4°F9.1°C 45.0°F7.2°C 88% 2.0 mph E3.2 kmh E 5.0 mph8.0 kmh 30.32 in1026.8 mb 0.00 in0.0 mm 0.00 in0.0 mm 0.00 in0.0 mm
02:00 AM 48.5°F9.2°C 45.1°F7.3°C 88% 3.0 mph ENE4.8 kmh ENE 12.0 mph19.3 kmh 30.32 in1026.8 mb 0.00 in0.0 mm 0.00 in0.0 mm 0.00 in0.0 mm
01:30 AM 49.2°F9.6°C 45.8°F7.7°C 88% 4.0 mph E6.4 kmh E 6.0 mph9.7 kmh 30.32 in1026.8 mb 0.00 in0.0 mm 0.00 in0.0 mm 0.00 in0.0 mm
01:00 AM 49.5°F9.7°C 46.4°F8.0°C 89% 5.0 mph E8.0 kmh E 6.0 mph9.7 kmh 30.31 in1026.4 mb 0.00 in0.0 mm 0.00 in0.0 mm 0.00 in0.0 mm
12:30 AM 49.7°F9.8°C 46.6°F8.1°C 89% 5.0 mph E8.0 kmh E 7.0 mph11.3 kmh 30.30 in1026.1 mb 0.00 in0.0 mm 0.00 in0.0 mm 0.00 in0.0 mm
12:00 AM 50.2°F10.1°C 46.8°F8.2°C 88% 10.0 mph ESE16.1 kmh ESE 10.0 mph16.1 kmh 30.30 in1026.1 mb 0.00 in0.0 mm 0.00 in0.0 mm 0.00 in0.0 mm